sensor_id;sensor_type;location;lat;lon;timestamp;P1;durP1;ratioP1;P2;durP2;ratioP2
68923;SDS011;55961;52.156;20.942;2022-11-03T00:01:09;12.07;;;3.90;;
68923;SDS011;55961;52.156;20.942;2022-11-03T00:03:35;11.63;;;3.53;;
68923;SDS011;55961;52.156;20.942;2022-11-03T00:06:01;8.75;;;3.10;;
68923;SDS011;55961;52.156;20.942;2022-11-03T00:08:35;9.43;;;3.47;;
68923;SDS011;55961;52.156;20.942;2022-11-03T00:11:03;12.37;;;3.67;;
68923;SDS011;55961;52.156;20.942;2022-11-03T00:13:30;8.75;;;3.03;;
68923;SDS011;55961;52.156;20.942;2022-11-03T00:15:56;10.40;;;3.95;;
68923;SDS011;55961;52.156;20.942;2022-11-03T00:18:22;10.65;;;3.22;;
68923;SDS011;55961;52.156;20.942;2022-11-03T00:20:58;9.97;;;3.43;;
68923;SDS011;55961;52.156;20.942;2022-11-03T00:23:25;12.05;;;3.28;;
68923;SDS011;55961;52.156;20.942;2022-11-03T00:25:52;9.68;;;3.25;;
68923;SDS011;55961;52.156;20.942;2022-11-03T00:28:18;8.57;;;3.20;;
68923;SDS011;55961;52.156;20.942;2022-11-03T00:30:44;8.07;;;3.30;;
68923;SDS011;55961;52.156;20.942;2022-11-03T00:33:09;13.05;;;3.58;;
68923;SDS011;55961;52.156;20.942;2022-11-03T00:35:35;7.93;;;3.13;;
68923;SDS011;55961;52.156;20.942;2022-11-03T00:38:01;12.87;;;3.40;;
68923;SDS011;55961;52.156;20.942;2022-11-03T00:40:27;10.43;;;3.47;;
68923;SDS011;55961;52.156;20.942;2022-11-03T00:42:53;9.02;;;3.03;;
68923;SDS011;55961;52.156;20.942;2022-11-03T00:45:19;10.67;;;3.33;;
68923;SDS011;55961;52.156;20.942;2022-11-03T00:47:45;12.50;;;2.67;;
68923;SDS011;55961;52.156;20.942;2022-11-03T00:50:29;10.10;;;3.58;;
68923;SDS011;55961;52.156;20.942;2022-11-03T00:52:57;11.53;;;2.63;;
68923;SDS011;55961;52.156;20.942;2022-11-03T00:55:23;9.27;;;2.88;;
68923;SDS011;55961;52.156;20.942;2022-11-03T00:57:51;6.57;;;2.85;;
68923;SDS011;55961;52.156;20.942;2022-11-03T01:00:17;7.03;;;2.70;;
68923;SDS011;55961;52.156;20.942;2022-11-03T01:02:43;9.18;;;2.92;;
68923;SDS011;55961;52.156;20.942;2022-11-03T01:05:09;8.43;;;3.38;;
68923;SDS011;55961;52.156;20.942;2022-11-03T01:07:53;10.32;;;2.97;;
68923;SDS011;55961;52.156;20.942;2022-11-03T01:10:19;12.67;;;3.47;;
68923;SDS011;55961;52.156;20.942;2022-11-03T01:12:45;10.77;;;3.22;;
68923;SDS011;55961;52.156;20.942;2022-11-03T01:15:11;9.10;;;3.23;;
68923;SDS011;55961;52.156;20.942;2022-11-03T01:17:38;11.68;;;3.40;;
68923;SDS011;55961;52.156;20.942;2022-11-03T01:20:05;13.43;;;3.33;;
68923;SDS011;55961;52.156;20.942;2022-11-03T01:22:31;8.43;;;2.73;;
68923;SDS011;55961;52.156;20.942;2022-11-03T01:24:57;9.68;;;3.10;;
68923;SDS011;55961;52.156;20.942;2022-11-03T01:27:23;8.55;;;3.42;;
68923;SDS011;55961;52.156;20.942;2022-11-03T01:29:48;7.87;;;3.23;;
68923;SDS011;55961;52.156;20.942;2022-11-03T01:32:14;10.52;;;3.65;;
68923;SDS011;55961;52.156;20.942;2022-11-03T01:34:40;10.75;;;3.33;;
68923;SDS011;55961;52.156;20.942;2022-11-03T01:37:06;11.23;;;3.50;;
68923;SDS011;55961;52.156;20.942;2022-11-03T01:39:32;7.70;;;3.03;;
68923;SDS011;55961;52.156;20.942;2022-11-03T01:41:58;10.52;;;3.63;;
68923;SDS011;55961;52.156;20.942;2022-11-03T01:44:45;11.02;;;4.63;;
68923;SDS011;55961;52.156;20.942;2022-11-03T01:47:29;10.60;;;3.83;;
68923;SDS011;55961;52.156;20.942;2022-11-03T01:52:31;10.88;;;3.95;;
68923;SDS011;55961;52.156;20.942;2022-11-03T01:55:20;11.98;;;4.20;;
68923;SDS011;55961;52.156;20.942;2022-11-03T01:57:58;14.13;;;5.07;;
68923;SDS011;55961;52.156;20.942;2022-11-03T02:00:30;12.17;;;4.60;;
68923;SDS011;55961;52.156;20.942;2022-11-03T02:02:56;9.60;;;3.60;;
68923;SDS011;55961;52.156;20.942;2022-11-03T02:05:23;11.27;;;4.38;;
68923;SDS011;55961;52.156;20.942;2022-11-03T02:10:26;13.27;;;4.40;;
68923;SDS011;55961;52.156;20.942;2022-11-03T02:12:51;13.77;;;4.57;;
68923;SDS011;55961;52.156;20.942;2022-11-03T02:15:18;10.73;;;4.72;;
68923;SDS011;55961;52.156;20.942;2022-11-03T02:17:46;15.98;;;5.07;;
68923;SDS011;55961;52.156;20.942;2022-11-03T02:20:16;11.80;;;4.60;;
68923;SDS011;55961;52.156;20.942;2022-11-03T02:25:16;13.80;;;5.00;;
68923;SDS011;55961;52.156;20.942;2022-11-03T02:27:42;12.43;;;5.18;;
68923;SDS011;55961;52.156;20.942;2022-11-03T02:30:09;12.10;;;4.87;;
68923;SDS011;55961;52.156;20.942;2022-11-03T02:32:47;14.38;;;5.28;;
68923;SDS011;55961;52.156;20.942;2022-11-03T02:35:39;13.27;;;5.00;;
68923;SDS011;55961;52.156;20.942;2022-11-03T02:38:16;15.05;;;6.15;;
68923;SDS011;55961;52.156;20.942;2022-11-03T02:40:45;15.20;;;6.13;;
68923;SDS011;55961;52.156;20.942;2022-11-03T02:43:15;12.97;;;4.90;;
68923;SDS011;55961;52.156;20.942;2022-11-03T02:45:42;14.55;;;5.45;;
68923;SDS011;55961;52.156;20.942;2022-11-03T02:48:11;15.32;;;5.95;;
68923;SDS011;55961;52.156;20.942;2022-11-03T02:50:40;17.83;;;5.60;;
68923;SDS011;55961;52.156;20.942;2022-11-03T02:53:08;16.95;;;5.80;;
68923;SDS011;55961;52.156;20.942;2022-11-03T02:55:38;18.43;;;5.73;;
68923;SDS011;55961;52.156;20.942;2022-11-03T02:58:13;16.40;;;6.03;;
68923;SDS011;55961;52.156;20.942;2022-11-03T03:00:52;16.70;;;6.10;;
68923;SDS011;55961;52.156;20.942;2022-11-03T03:03:40;14.23;;;5.90;;
68923;SDS011;55961;52.156;20.942;2022-11-03T03:06:21;13.20;;;5.30;;
68923;SDS011;55961;52.156;20.942;2022-11-03T03:09:02;12.60;;;5.63;;
68923;SDS011;55961;52.156;20.942;2022-11-03T03:11:31;16.10;;;6.18;;
68923;SDS011;55961;52.156;20.942;2022-11-03T03:14:03;14.80;;;5.40;;
68923;SDS011;55961;52.156;20.942;2022-11-03T03:16:59;13.25;;;5.13;;
68923;SDS011;55961;52.156;20.942;2022-11-03T03:22:13;13.97;;;5.50;;
68923;SDS011;55961;52.156;20.942;2022-11-03T03:24:48;16.88;;;5.68;;
68923;SDS011;55961;52.156;20.942;2022-11-03T03:27:19;14.70;;;5.72;;
68923;SDS011;55961;52.156;20.942;2022-11-03T03:29:49;16.42;;;5.30;;
68923;SDS011;55961;52.156;20.942;2022-11-03T03:32:19;14.45;;;4.75;;
68923;SDS011;55961;52.156;20.942;2022-11-03T03:34:48;14.33;;;5.10;;
68923;SDS011;55961;52.156;20.942;2022-11-03T03:37:16;15.90;;;5.78;;
68923;SDS011;55961;52.156;20.942;2022-11-03T03:39:48;12.88;;;5.70;;
68923;SDS011;55961;52.156;20.942;2022-11-03T03:42:17;11.93;;;5.32;;
68923;SDS011;55961;52.156;20.942;2022-11-03T03:44:45;12.90;;;5.45;;
68923;SDS011;55961;52.156;20.942;2022-11-03T03:47:14;12.57;;;5.03;;
68923;SDS011;55961;52.156;20.942;2022-11-03T03:49:51;14.18;;;4.97;;
68923;SDS011;55961;52.156;20.942;2022-11-03T03:52:17;13.93;;;5.03;;
68923;SDS011;55961;52.156;20.942;2022-11-03T03:54:44;16.17;;;5.13;;
68923;SDS011;55961;52.156;20.942;2022-11-03T03:57:16;14.80;;;5.40;;
68923;SDS011;55961;52.156;20.942;2022-11-03T03:59:45;15.60;;;6.07;;
68923;SDS011;55961;52.156;20.942;2022-11-03T04:02:11;20.73;;;6.50;;
68923;SDS011;55961;52.156;20.942;2022-11-03T04:04:37;20.37;;;7.40;;
68923;SDS011;55961;52.156;20.942;2022-11-03T04:07:04;20.30;;;7.00;;
68923;SDS011;55961;52.156;20.942;2022-11-03T04:09:48;14.13;;;5.68;;
68923;SDS011;55961;52.156;20.942;2022-11-03T04:12:14;13.23;;;6.28;;
68923;SDS011;55961;52.156;20.942;2022-11-03T04:14:59;14.88;;;5.95;;
68923;SDS011;55961;52.156;20.942;2022-11-03T04:17:44;19.23;;;6.20;;
68923;SDS011;55961;52.156;20.942;2022-11-03T04:20:30;14.13;;;5.97;;
68923;SDS011;55961;52.156;20.942;2022-11-03T04:23:15;18.15;;;6.50;;
68923;SDS011;55961;52.156;20.942;2022-11-03T04:25:41;15.20;;;5.55;;
68923;SDS011;55961;52.156;20.942;2022-11-03T04:28:12;17.95;;;5.68;;
68923;SDS011;55961;52.156;20.942;2022-11-03T04:30:39;12.87;;;5.67;;
68923;SDS011;55961;52.156;20.942;2022-11-03T04:33:16;13.77;;;5.28;;
68923;SDS011;55961;52.156;20.942;2022-11-03T04:35:46;15.38;;;4.97;;
68923;SDS011;55961;52.156;20.942;2022-11-03T04:40:45;11.33;;;4.70;;
68923;SDS011;55961;52.156;20.942;2022-11-03T04:43:14;13.55;;;5.45;;
68923;SDS011;55961;52.156;20.942;2022-11-03T04:45:43;15.02;;;5.40;;
68923;SDS011;55961;52.156;20.942;2022-11-03T04:48:14;13.73;;;5.70;;
68923;SDS011;55961;52.156;20.942;2022-11-03T04:50:44;15.80;;;5.82;;
68923;SDS011;55961;52.156;20.942;2022-11-03T04:53:12;13.83;;;4.90;;
68923;SDS011;55961;52.156;20.942;2022-11-03T04:55:40;15.45;;;5.43;;
68923;SDS011;55961;52.156;20.942;2022-11-03T04:58:12;12.43;;;4.72;;
68923;SDS011;55961;52.156;20.942;2022-11-03T05:01:08;15.00;;;5.22;;
68923;SDS011;55961;52.156;20.942;2022-11-03T05:03:37;10.77;;;4.18;;
68923;SDS011;55961;52.156;20.942;2022-11-03T05:06:18;11.73;;;5.20;;
68923;SDS011;55961;52.156;20.942;2022-11-03T05:08:51;15.52;;;5.20;;
68923;SDS011;55961;52.156;20.942;2022-11-03T05:14:14;13.23;;;4.70;;
68923;SDS011;55961;52.156;20.942;2022-11-03T05:16:46;12.25;;;4.68;;
68923;SDS011;55961;52.156;20.942;2022-11-03T05:21:53;13.80;;;4.85;;
68923;SDS011;55961;52.156;20.942;2022-11-03T05:24:21;13.85;;;5.47;;
68923;SDS011;55961;52.156;20.942;2022-11-03T05:26:50;13.93;;;5.53;;
68923;SDS011;55961;52.156;20.942;2022-11-03T05:29:35;14.55;;;5.25;;
68923;SDS011;55961;52.156;20.942;2022-11-03T05:32:07;14.17;;;5.43;;
68923;SDS011;55961;52.156;20.942;2022-11-03T05:34:42;11.88;;;4.75;;
68923;SDS011;55961;52.156;20.942;2022-11-03T05:39:55;11.23;;;5.13;;
68923;SDS011;55961;52.156;20.942;2022-11-03T05:42:42;13.48;;;5.13;;
68923;SDS011;55961;52.156;20.942;2022-11-03T05:47:48;12.75;;;5.57;;
68923;SDS011;55961;52.156;20.942;2022-11-03T05:50:21;16.17;;;5.95;;
68923;SDS011;55961;52.156;20.942;2022-11-03T05:52:53;12.60;;;5.53;;
68923;SDS011;55961;52.156;20.942;2022-11-03T05:55:38;15.77;;;5.35;;
68923;SDS011;55961;52.156;20.942;2022-11-03T05:58:13;16.53;;;5.50;;
68923;SDS011;55961;52.156;20.942;2022-11-03T06:00:45;15.50;;;5.88;;
68923;SDS011;55961;52.156;20.942;2022-11-03T06:03:13;14.95;;;5.00;;
68923;SDS011;55961;52.156;20.942;2022-11-03T06:05:42;16.92;;;5.93;;
68923;SDS011;55961;52.156;20.942;2022-11-03T06:08:12;15.77;;;5.43;;
68923;SDS011;55961;52.156;20.942;2022-11-03T06:10:44;11.67;;;5.17;;
68923;SDS011;55961;52.156;20.942;2022-11-03T06:13:15;15.50;;;5.93;;
68923;SDS011;55961;52.156;20.942;2022-11-03T06:15:56;16.60;;;6.05;;
68923;SDS011;55961;52.156;20.942;2022-11-03T06:18:28;12.95;;;5.47;;
68923;SDS011;55961;52.156;20.942;2022-11-03T06:21:06;14.93;;;5.95;;
68923;SDS011;55961;52.156;20.942;2022-11-03T06:23:40;15.80;;;5.83;;
68923;SDS011;55961;52.156;20.942;2022-11-03T06:26:11;14.15;;;6.05;;
68923;SDS011;55961;52.156;20.942;2022-11-03T06:28:43;14.80;;;5.78;;
68923;SDS011;55961;52.156;20.942;2022-11-03T06:31:20;15.10;;;5.90;;
68923;SDS011;55961;52.156;20.942;2022-11-03T06:33:55;16.92;;;5.65;;
68923;SDS011;55961;52.156;20.942;2022-11-03T06:36:23;18.30;;;6.27;;
68923;SDS011;55961;52.156;20.942;2022-11-03T06:39:02;12.23;;;5.03;;
68923;SDS011;55961;52.156;20.942;2022-11-03T06:41:35;13.93;;;5.93;;
68923;SDS011;55961;52.156;20.942;2022-11-03T06:44:01;14.48;;;6.07;;
68923;SDS011;55961;52.156;20.942;2022-11-03T06:46:42;14.43;;;5.20;;
68923;SDS011;55961;52.156;20.942;2022-11-03T06:49:20;15.27;;;6.17;;
68923;SDS011;55961;52.156;20.942;2022-11-03T06:51:51;11.30;;;4.82;;
68923;SDS011;55961;52.156;20.942;2022-11-03T06:54:17;16.10;;;5.20;;
68923;SDS011;55961;52.156;20.942;2022-11-03T06:56:43;15.63;;;5.25;;
68923;SDS011;55961;52.156;20.942;2022-11-03T06:59:09;16.08;;;7.00;;
68923;SDS011;55961;52.156;20.942;2022-11-03T07:01:40;18.70;;;6.77;;
68923;SDS011;55961;52.156;20.942;2022-11-03T07:04:19;13.65;;;6.18;;
68923;SDS011;55961;52.156;20.942;2022-11-03T07:06:47;13.63;;;5.80;;
68923;SDS011;55961;52.156;20.942;2022-11-03T07:09:14;15.07;;;5.82;;
68923;SDS011;55961;52.156;20.942;2022-11-03T07:12:17;17.60;;;6.07;;
68923;SDS011;55961;52.156;20.942;2022-11-03T07:14:40;17.02;;;6.18;;
68923;SDS011;55961;52.156;20.942;2022-11-03T07:17:12;17.45;;;5.95;;
68923;SDS011;55961;52.156;20.942;2022-11-03T07:19:42;17.23;;;6.68;;
68923;SDS011;55961;52.156;20.942;2022-11-03T07:22:20;19.42;;;6.57;;
68923;SDS011;55961;52.156;20.942;2022-11-03T07:24:48;13.80;;;6.50;;
68923;SDS011;55961;52.156;20.942;2022-11-03T07:27:25;13.30;;;6.07;;
68923;SDS011;55961;52.156;20.942;2022-11-03T07:29:56;22.83;;;6.95;;
68923;SDS011;55961;52.156;20.942;2022-11-03T07:32:31;17.15;;;7.40;;
68923;SDS011;55961;52.156;20.942;2022-11-03T07:37:36;17.77;;;7.13;;
68923;SDS011;55961;52.156;20.942;2022-11-03T07:40:02;13.95;;;6.00;;
68923;SDS011;55961;52.156;20.942;2022-11-03T07:42:30;25.92;;;7.75;;
68923;SDS011;55961;52.156;20.942;2022-11-03T07:44:56;18.08;;;6.15;;
68923;SDS011;55961;52.156;20.942;2022-11-03T07:47:22;13.03;;;5.37;;
68923;SDS011;55961;52.156;20.942;2022-11-03T07:49:53;15.23;;;5.78;;
68923;SDS011;55961;52.156;20.942;2022-11-03T07:52:23;15.00;;;6.13;;
68923;SDS011;55961;52.156;20.942;2022-11-03T07:54:52;19.10;;;6.47;;
68923;SDS011;55961;52.156;20.942;2022-11-03T07:57:22;14.73;;;6.30;;
68923;SDS011;55961;52.156;20.942;2022-11-03T07:59:51;11.93;;;5.50;;
68923;SDS011;55961;52.156;20.942;2022-11-03T08:05:01;12.48;;;5.20;;
68923;SDS011;55961;52.156;20.942;2022-11-03T08:07:28;16.58;;;5.90;;
68923;SDS011;55961;52.156;20.942;2022-11-03T08:09:54;21.45;;;6.60;;
68923;SDS011;55961;52.156;20.942;2022-11-03T08:12:20;15.33;;;6.27;;
68923;SDS011;55961;52.156;20.942;2022-11-03T08:14:46;17.15;;;7.97;;
68923;SDS011;55961;52.156;20.942;2022-11-03T08:17:13;13.82;;;6.13;;
68923;SDS011;55961;52.156;20.942;2022-11-03T08:19:39;13.18;;;5.90;;
68923;SDS011;55961;52.156;20.942;2022-11-03T08:22:05;12.38;;;6.03;;
68923;SDS011;55961;52.156;20.942;2022-11-03T08:24:31;11.23;;;5.80;;
68923;SDS011;55961;52.156;20.942;2022-11-03T08:26:57;11.95;;;5.75;;
68923;SDS011;55961;52.156;20.942;2022-11-03T08:29:23;15.57;;;5.67;;
68923;SDS011;55961;52.156;20.942;2022-11-03T08:31:52;14.93;;;6.30;;
68923;SDS011;55961;52.156;20.942;2022-11-03T08:34:18;14.60;;;5.32;;
68923;SDS011;55961;52.156;20.942;2022-11-03T08:36:44;16.80;;;7.13;;
68923;SDS011;55961;52.156;20.942;2022-11-03T08:39:10;15.47;;;5.60;;
68923;SDS011;55961;52.156;20.942;2022-11-03T08:41:36;13.20;;;5.90;;
68923;SDS011;55961;52.156;20.942;2022-11-03T08:44:01;11.82;;;5.20;;
68923;SDS011;55961;52.156;20.942;2022-11-03T08:46:27;12.43;;;4.93;;
68923;SDS011;55961;52.156;20.942;2022-11-03T08:48:54;14.57;;;5.10;;
68923;SDS011;55961;52.156;20.942;2022-11-03T08:51:20;14.57;;;5.20;;
68923;SDS011;55961;52.156;20.942;2022-11-03T08:53:45;10.13;;;4.82;;
68923;SDS011;55961;52.156;20.942;2022-11-03T08:56:15;13.93;;;5.40;;
68923;SDS011;55961;52.156;20.942;2022-11-03T08:58:41;13.70;;;4.97;;
68923;SDS011;55961;52.156;20.942;2022-11-03T09:01:09;13.50;;;4.90;;
68923;SDS011;55961;52.156;20.942;2022-11-03T09:03:35;12.98;;;4.63;;
68923;SDS011;55961;52.156;20.942;2022-11-03T09:06:01;13.00;;;5.17;;
68923;SDS011;55961;52.156;20.942;2022-11-03T09:08:26;12.23;;;5.15;;
68923;SDS011;55961;52.156;20.942;2022-11-03T09:10:52;11.82;;;5.00;;
68923;SDS011;55961;52.156;20.942;2022-11-03T09:13:18;11.60;;;4.20;;
68923;SDS011;55961;52.156;20.942;2022-11-03T09:15:44;12.18;;;4.65;;
68923;SDS011;55961;52.156;20.942;2022-11-03T09:18:10;18.60;;;4.93;;
68923;SDS011;55961;52.156;20.942;2022-11-03T09:20:35;10.40;;;4.20;;
68923;SDS011;55961;52.156;20.942;2022-11-03T09:23:01;10.68;;;4.13;;
68923;SDS011;55961;52.156;20.942;2022-11-03T09:25:27;14.87;;;4.47;;
68923;SDS011;55961;52.156;20.942;2022-11-03T09:27:53;12.05;;;3.75;;
68923;SDS011;55961;52.156;20.942;2022-11-03T09:30:19;12.77;;;3.90;;
68923;SDS011;55961;52.156;20.942;2022-11-03T09:32:45;13.53;;;3.37;;
68923;SDS011;55961;52.156;20.942;2022-11-03T09:35:12;10.65;;;3.00;;
68923;SDS011;55961;52.156;20.942;2022-11-03T09:37:39;9.75;;;3.08;;
68923;SDS011;55961;52.156;20.942;2022-11-03T09:40:05;8.10;;;3.22;;
68923;SDS011;55961;52.156;20.942;2022-11-03T09:42:33;12.23;;;3.20;;
68923;SDS011;55961;52.156;20.942;2022-11-03T09:45:01;10.83;;;2.97;;
68923;SDS011;55961;52.156;20.942;2022-11-03T09:47:32;10.95;;;3.10;;
68923;SDS011;55961;52.156;20.942;2022-11-03T09:50:01;8.75;;;2.83;;
68923;SDS011;55961;52.156;20.942;2022-11-03T09:52:27;11.23;;;2.90;;
68923;SDS011;55961;52.156;20.942;2022-11-03T09:54:55;14.18;;;3.05;;
68923;SDS011;55961;52.156;20.942;2022-11-03T09:57:21;9.37;;;2.27;;
68923;SDS011;55961;52.156;20.942;2022-11-03T09:59:48;10.60;;;2.70;;
68923;SDS011;55961;52.156;20.942;2022-11-03T10:02:27;9.27;;;2.63;;
68923;SDS011;55961;52.156;20.942;2022-11-03T10:04:56;10.18;;;2.50;;
68923;SDS011;55961;52.156;20.942;2022-11-03T10:07:25;11.57;;;2.80;;
68923;SDS011;55961;52.156;20.942;2022-11-03T10:09:52;8.47;;;2.47;;
68923;SDS011;55961;52.156;20.942;2022-11-03T10:12:20;10.70;;;2.53;;
68923;SDS011;55961;52.156;20.942;2022-11-03T10:14:48;12.40;;;2.95;;
68923;SDS011;55961;52.156;20.942;2022-11-03T10:17:16;11.40;;;3.10;;
68923;SDS011;55961;52.156;20.942;2022-11-03T10:19:48;8.60;;;2.72;;
68923;SDS011;55961;52.156;20.942;2022-11-03T10:22:16;7.23;;;2.93;;
68923;SDS011;55961;52.156;20.942;2022-11-03T10:24:46;10.38;;;2.60;;
68923;SDS011;55961;52.156;20.942;2022-11-03T10:27:19;7.65;;;2.10;;
68923;SDS011;55961;52.156;20.942;2022-11-03T10:32:35;7.97;;;2.25;;
68923;SDS011;55961;52.156;20.942;2022-11-03T10:38:14;6.68;;;1.52;;
68923;SDS011;55961;52.156;20.942;2022-11-03T10:40:45;9.55;;;1.83;;
68923;SDS011;55961;52.156;20.942;2022-11-03T10:43:11;9.65;;;1.77;;
68923;SDS011;55961;52.156;20.942;2022-11-03T10:45:37;12.07;;;1.97;;
68923;SDS011;55961;52.156;20.942;2022-11-03T10:48:04;10.02;;;1.63;;
68923;SDS011;55961;52.156;20.942;2022-11-03T10:50:33;7.20;;;1.50;;
68923;SDS011;55961;52.156;20.942;2022-11-03T10:52:59;8.18;;;2.00;;
68923;SDS011;55961;52.156;20.942;2022-11-03T10:55:25;8.97;;;1.87;;
68923;SDS011;55961;52.156;20.942;2022-11-03T10:57:52;7.38;;;2.15;;
68923;SDS011;55961;52.156;20.942;2022-11-03T11:00:22;9.00;;;2.00;;
68923;SDS011;55961;52.156;20.942;2022-11-03T11:02:49;6.38;;;1.48;;
68923;SDS011;55961;52.156;20.942;2022-11-03T11:05:21;10.35;;;1.92;;
68923;SDS011;55961;52.156;20.942;2022-11-03T11:07:49;8.17;;;1.60;;
68923;SDS011;55961;52.156;20.942;2022-11-03T11:10:17;10.55;;;1.83;;
68923;SDS011;55961;52.156;20.942;2022-11-03T11:15:34;8.10;;;1.90;;
68923;SDS011;55961;52.156;20.942;2022-11-03T11:18:08;7.55;;;2.10;;
68923;SDS011;55961;52.156;20.942;2022-11-03T11:20:39;6.20;;;1.90;;
68923;SDS011;55961;52.156;20.942;2022-11-03T11:28:38;11.95;;;2.17;;
68923;SDS011;55961;52.156;20.942;2022-11-03T11:36:39;8.00;;;1.65;;
68923;SDS011;55961;52.156;20.942;2022-11-03T11:39:09;6.30;;;1.15;;
68923;SDS011;55961;52.156;20.942;2022-11-03T11:52:46;6.60;;;1.30;;
68923;SDS011;55961;52.156;20.942;2022-11-03T11:55:31;4.90;;;1.02;;
68923;SDS011;55961;52.156;20.942;2022-11-03T11:58:20;8.73;;;1.60;;
68923;SDS011;55961;52.156;20.942;2022-11-03T12:00:51;11.13;;;1.97;;
68923;SDS011;55961;52.156;20.942;2022-11-03T12:03:32;5.80;;;1.45;;
68923;SDS011;55961;52.156;20.942;2022-11-03T12:06:01;11.38;;;1.30;;
68923;SDS011;55961;52.156;20.942;2022-11-03T12:08:28;9.45;;;1.63;;
68923;SDS011;55961;52.156;20.942;2022-11-03T12:10:56;10.05;;;1.20;;
68923;SDS011;55961;52.156;20.942;2022-11-03T12:22:03;5.32;;;1.08;;
68923;SDS011;55961;52.156;20.942;2022-11-03T12:30:31;7.30;;;1.20;;
68923;SDS011;55961;52.156;20.942;2022-11-03T12:32:39;9.70;;;1.55;;
68923;SDS011;55961;52.156;20.942;2022-11-03T12:35:06;5.20;;;1.20;;
68923;SDS011;55961;52.156;20.942;2022-11-03T12:37:33;7.50;;;1.30;;
68923;SDS011;55961;52.156;20.942;2022-11-03T12:39:59;5.18;;;1.35;;
68923;SDS011;55961;52.156;20.942;2022-11-03T12:42:24;7.20;;;1.20;;
68923;SDS011;55961;52.156;20.942;2022-11-03T12:44:50;5.90;;;1.83;;
68923;SDS011;55961;52.156;20.942;2022-11-03T12:47:17;7.80;;;1.83;;
68923;SDS011;55961;52.156;20.942;2022-11-03T12:49:43;7.68;;;1.40;;
68923;SDS011;55961;52.156;20.942;2022-11-03T12:52:09;5.50;;;1.10;;
68923;SDS011;55961;52.156;20.942;2022-11-03T12:54:35;9.37;;;1.77;;
68923;SDS011;55961;52.156;20.942;2022-11-03T12:57:01;7.30;;;1.33;;
68923;SDS011;55961;52.156;20.942;2022-11-03T12:59:27;5.57;;;0.90;;
68923;SDS011;55961;52.156;20.942;2022-11-03T13:01:53;7.82;;;1.30;;
68923;SDS011;55961;52.156;20.942;2022-11-03T13:04:19;6.83;;;1.23;;
68923;SDS011;55961;52.156;20.942;2022-11-03T13:06:45;6.85;;;1.73;;
68923;SDS011;55961;52.156;20.942;2022-11-03T13:09:11;5.95;;;1.40;;
68923;SDS011;55961;52.156;20.942;2022-11-03T13:11:36;7.50;;;1.30;;
68923;SDS011;55961;52.156;20.942;2022-11-03T13:14:21;9.10;;;1.52;;
68923;SDS011;55961;52.156;20.942;2022-11-03T13:16:46;6.57;;;1.27;;
68923;SDS011;55961;52.156;20.942;2022-11-03T13:19:12;5.83;;;1.60;;
68923;SDS011;55961;52.156;20.942;2022-11-03T13:21:38;7.13;;;1.50;;
68923;SDS011;55961;52.156;20.942;2022-11-03T13:24:04;5.68;;;1.60;;
68923;SDS011;55961;52.156;20.942;2022-11-03T13:26:30;7.90;;;1.80;;
68923;SDS011;55961;52.156;20.942;2022-11-03T13:28:56;7.83;;;1.10;;
68923;SDS011;55961;52.156;20.942;2022-11-03T13:31:22;6.85;;;1.20;;
68923;SDS011;55961;52.156;20.942;2022-11-03T13:33:48;7.88;;;1.38;;
68923;SDS011;55961;52.156;20.942;2022-11-03T13:36:15;8.68;;;1.92;;
68923;SDS011;55961;52.156;20.942;2022-11-03T13:38:41;7.80;;;1.90;;
68923;SDS011;55961;52.156;20.942;2022-11-03T13:41:07;10.00;;;1.73;;
68923;SDS011;55961;52.156;20.942;2022-11-03T13:43:33;7.03;;;1.20;;
68923;SDS011;55961;52.156;20.942;2022-11-03T13:45:59;7.67;;;1.67;;
68923;SDS011;55961;52.156;20.942;2022-11-03T13:48:27;9.10;;;1.75;;
68923;SDS011;55961;52.156;20.942;2022-11-03T13:50:53;9.70;;;2.03;;
68923;SDS011;55961;52.156;20.942;2022-11-03T13:53:20;8.35;;;1.75;;
68923;SDS011;55961;52.156;20.942;2022-11-03T13:55:46;6.72;;;1.67;;
68923;SDS011;55961;52.156;20.942;2022-11-03T13:58:12;11.20;;;2.00;;
68923;SDS011;55961;52.156;20.942;2022-11-03T14:00:37;8.57;;;1.67;;
68923;SDS011;55961;52.156;20.942;2022-11-03T14:03:03;6.80;;;1.30;;
68923;SDS011;55961;52.156;20.942;2022-11-03T14:05:29;13.20;;;1.48;;
68923;SDS011;55961;52.156;20.942;2022-11-03T14:07:56;9.40;;;2.10;;
68923;SDS011;55961;52.156;20.942;2022-11-03T14:10:22;8.40;;;1.40;;
68923;SDS011;55961;52.156;20.942;2022-11-03T14:12:48;8.07;;;1.70;;
68923;SDS011;55961;52.156;20.942;2022-11-03T14:15:13;7.65;;;1.70;;
68923;SDS011;55961;52.156;20.942;2022-11-03T14:17:39;10.02;;;1.92;;
68923;SDS011;55961;52.156;20.942;2022-11-03T14:20:06;9.80;;;2.00;;
68923;SDS011;55961;52.156;20.942;2022-11-03T14:22:35;7.35;;;1.92;;
68923;SDS011;55961;52.156;20.942;2022-11-03T14:25:01;7.82;;;1.60;;
68923;SDS011;55961;52.156;20.942;2022-11-03T14:27:27;9.53;;;1.97;;
68923;SDS011;55961;52.156;20.942;2022-11-03T14:29:52;8.07;;;1.67;;
68923;SDS011;55961;52.156;20.942;2022-11-03T14:32:19;6.00;;;2.00;;
68923;SDS011;55961;52.156;20.942;2022-11-03T14:34:45;10.00;;;1.90;;
68923;SDS011;55961;52.156;20.942;2022-11-03T14:37:12;8.73;;;1.60;;
68923;SDS011;55961;52.156;20.942;2022-11-03T14:39:38;7.38;;;2.20;;
68923;SDS011;55961;52.156;20.942;2022-11-03T14:42:05;7.80;;;1.77;;
68923;SDS011;55961;52.156;20.942;2022-11-03T14:44:36;7.68;;;1.90;;
68923;SDS011;55961;52.156;20.942;2022-11-03T14:47:03;14.23;;;2.38;;
68923;SDS011;55961;52.156;20.942;2022-11-03T14:49:31;11.23;;;1.67;;
68923;SDS011;55961;52.156;20.942;2022-11-03T14:51:58;7.75;;;1.67;;
68923;SDS011;55961;52.156;20.942;2022-11-03T14:54:25;8.27;;;2.25;;
68923;SDS011;55961;52.156;20.942;2022-11-03T14:56:52;13.27;;;2.45;;
68923;SDS011;55961;52.156;20.942;2022-11-03T14:59:18;12.70;;;2.33;;
68923;SDS011;55961;52.156;20.942;2022-11-03T15:01:44;11.30;;;1.85;;
68923;SDS011;55961;52.156;20.942;2022-11-03T15:04:11;13.98;;;2.58;;
68923;SDS011;55961;52.156;20.942;2022-11-03T15:06:37;7.20;;;2.40;;
68923;SDS011;55961;52.156;20.942;2022-11-03T15:09:04;11.37;;;2.77;;
68923;SDS011;55961;52.156;20.942;2022-11-03T15:11:30;15.63;;;3.75;;
68923;SDS011;55961;52.156;20.942;2022-11-03T15:13:57;13.65;;;3.20;;
68923;SDS011;55961;52.156;20.942;2022-11-03T15:16:22;12.98;;;3.30;;
68923;SDS011;55961;52.156;20.942;2022-11-03T15:18:49;9.63;;;3.07;;
68923;SDS011;55961;52.156;20.942;2022-11-03T15:21:16;10.52;;;3.70;;
68923;SDS011;55961;52.156;20.942;2022-11-03T15:23:42;10.70;;;2.92;;
68923;SDS011;55961;52.156;20.942;2022-11-03T15:26:08;12.48;;;3.33;;
68923;SDS011;55961;52.156;20.942;2022-11-03T15:28:34;10.53;;;3.17;;
68923;SDS011;55961;52.156;20.942;2022-11-03T15:31:00;10.82;;;2.90;;
68923;SDS011;55961;52.156;20.942;2022-11-03T15:33:26;11.43;;;3.53;;
68923;SDS011;55961;52.156;20.942;2022-11-03T15:35:52;10.80;;;2.87;;
68923;SDS011;55961;52.156;20.942;2022-11-03T15:38:18;15.73;;;3.67;;
68923;SDS011;55961;52.156;20.942;2022-11-03T15:40:44;9.68;;;3.78;;
68923;SDS011;55961;52.156;20.942;2022-11-03T15:43:10;19.73;;;5.43;;
68923;SDS011;55961;52.156;20.942;2022-11-03T15:45:36;13.43;;;5.23;;
68923;SDS011;55961;52.156;20.942;2022-11-03T15:48:02;14.35;;;4.50;;
68923;SDS011;55961;52.156;20.942;2022-11-03T15:50:28;34.67;;;5.57;;
68923;SDS011;55961;52.156;20.942;2022-11-03T15:52:54;20.08;;;5.15;;